Allendale, California
Current Conditions -  °F | °C
As of 12:53 AM on Saturday 25 Oct 2014 (Local Time) from KVCB Reporting Station
Clear Clear  
Wind Chill: 63°   Ceiling: Unl
Heat Index: 63°   Visibility: 10mi
Dew Point: 54°   Wind: 9mph
Humidity: 72%   Direction: 190°S
Pressure: 29.92"   Gusts: NA
Location:  38.4195°N, 122.026°W
Report Text: KVCB 250753Z AUTO 19008KT 10SM CLR 17/12 A2992 RMK AO2 SLP129 T01720122 402670089 TSNO
Loading
Personal Weather Stations






























Interactive Weather Map New forecast layout! Learn more

10-Day Weather Forecast

Advertisements
Track Severe Weather on mobile